82V

Pine Bluffs Municipal Airport

Pine Bluffs, Wyoming, USA
METAR K82V 171435Z AUTO 00000KT 10SM CLR 17/11 A3029 RMK AO2 PWINO
Observed Flight Rules
Aug-17 @ 14:35 UTC (21 minutes ago) Visual Flight Rules
Visibility Clouds
10 miles
  • Clear skies
Temperatures Readings
Current 17°C / 63°F
Dewpoint 11°C / 52°F
Humidity 68%
Altimeter 30.29" Hg
Pressure 1026 hPa
Elevation 1570
METAR K82V 171435Z AUTO 00000KT 10SM CLR 17/11 A3029 RMK AO2 PWINO
Observed Flight Rules
Aug-17 @ 14:35 UTC
(21 minutes ago)
VFR
Clouds
  • Clear skies
Temperature Dewpoint
17°C / 63°F 11°C / 52°F
Humidity Altimeter Pressure
68% 30.29" Hg 1026 hPa